createdAt,value
2018-10-06T00:00:59.323Z,22.80
2018-10-06T00:03:27.390Z,25.87
2018-10-06T00:05:55.480Z,17.60
2018-10-06T00:08:23.553Z,19.00
2018-10-06T00:10:51.634Z,17.90
2018-10-06T00:13:19.712Z,18.03
2018-10-06T00:15:47.793Z,17.53
2018-10-06T00:18:15.861Z,23.67
2018-10-06T00:20:43.937Z,20.53
2018-10-06T00:23:12.005Z,23.60
2018-10-06T00:25:40.092Z,24.53
2018-10-06T00:28:08.211Z,17.53
2018-10-06T00:30:36.278Z,25.10
2018-10-06T00:33:04.359Z,29.53
2018-10-06T00:35:32.438Z,28.87
2018-10-06T00:38:00.512Z,26.10
2018-10-06T00:40:28.574Z,19.70
2018-10-06T00:42:56.655Z,17.33
2018-10-06T00:45:24.727Z,22.57
2018-10-06T00:47:52.806Z,24.40
2018-10-06T00:50:20.911Z,22.40
2018-10-06T00:52:48.987Z,18.90
2018-10-06T00:55:17.055Z,22.23
2018-10-06T00:57:45.134Z,23.33
2018-10-06T01:00:13.202Z,20.70
2018-10-06T01:02:41.293Z,25.47
2018-10-06T01:05:09.370Z,33.83
2018-10-06T01:07:37.463Z,30.10
2018-10-06T01:10:05.547Z,28.23
2018-10-06T01:12:33.630Z,20.13
2018-10-06T01:15:01.704Z,25.93
2018-10-06T01:17:29.784Z,21.20
2018-10-06T01:19:57.851Z,19.20
2018-10-06T01:22:25.941Z,17.57
2018-10-06T01:24:54.012Z,19.47
2018-10-06T01:27:22.099Z,22.37
2018-10-06T01:29:50.172Z,20.17
2018-10-06T01:32:18.364Z,22.20
2018-10-06T01:34:46.449Z,27.17
2018-10-06T01:37:14.523Z,22.57
2018-10-06T01:39:42.727Z,27.47
2018-10-06T01:42:10.794Z,23.53
2018-10-06T01:44:38.877Z,21.13
2018-10-06T01:47:07.106Z,22.13
2018-10-06T01:49:35.187Z,21.70
2018-10-06T01:52:03.254Z,25.73
2018-10-06T01:54:31.330Z,22.20
2018-10-06T01:56:59.405Z,33.97
2018-10-06T01:59:27.488Z,35.03
2018-10-06T02:01:55.561Z,35.43
2018-10-06T02:04:25.609Z,34.67
2018-10-06T02:06:54.902Z,31.00
2018-10-06T02:09:23.028Z,29.73
2018-10-06T02:11:51.559Z,33.90
2018-10-06T02:14:19.672Z,28.10
2018-10-06T02:16:47.750Z,39.30
2018-10-06T02:19:15.857Z,33.37
2018-10-06T02:21:43.943Z,39.50
2018-10-06T02:24:12.034Z,32.03
2018-10-06T02:26:40.117Z,30.60
2018-10-06T02:29:08.209Z,28.87
2018-10-06T02:31:36.294Z,37.93
2018-10-06T02:34:04.386Z,33.23
2018-10-06T02:36:32.463Z,29.63
2018-10-06T02:39:00.545Z,32.10
2018-10-06T02:41:28.642Z,26.00
2018-10-06T02:43:56.723Z,34.97
2018-10-06T02:46:24.815Z,39.10
2018-10-06T02:48:52.900Z,27.60
2018-10-06T02:51:20.991Z,27.17
2018-10-06T02:53:49.076Z,27.90
2018-10-06T02:56:17.172Z,27.00
2018-10-06T02:58:45.255Z,27.83
2018-10-06T03:01:13.352Z,25.23
2018-10-06T03:03:41.435Z,21.63
2018-10-06T03:06:09.544Z,23.87
2018-10-06T03:08:37.627Z,23.93
2018-10-06T03:11:05.840Z,21.53
2018-10-06T03:13:33.925Z,21.63
2018-10-06T03:16:02.015Z,20.37
2018-10-06T03:18:30.108Z,21.83
2018-10-06T03:20:58.194Z,25.73
2018-10-06T03:23:26.287Z,23.53
2018-10-06T03:25:54.384Z,22.70
2018-10-06T03:28:22.464Z,25.80
2018-10-06T03:30:50.555Z,22.30
2018-10-06T03:33:18.638Z,22.03
2018-10-06T03:35:46.739Z,22.60
2018-10-06T03:38:14.816Z,24.17
2018-10-06T03:40:42.912Z,26.43
2018-10-06T03:43:11.018Z,24.10
2018-10-06T03:45:39.107Z,24.67
2018-10-06T03:48:07.194Z,25.47
2018-10-06T03:50:35.358Z,24.73
2018-10-06T03:53:03.434Z,28.00
2018-10-06T03:55:31.537Z,26.97
2018-10-06T03:57:59.628Z,24.93
2018-10-06T04:00:27.711Z,27.43
2018-10-06T04:02:55.808Z,26.03
2018-10-06T04:05:23.899Z,24.53
2018-10-06T04:07:51.987Z,23.50
2018-10-06T04:10:20.073Z,22.77
2018-10-06T04:12:48.173Z,21.47
2018-10-06T04:15:16.254Z,30.77
2018-10-06T04:17:44.354Z,25.97
2018-10-06T04:20:12.526Z,27.30
2018-10-06T04:22:40.629Z,26.37
2018-10-06T04:25:08.702Z,26.10
2018-10-06T04:27:36.995Z,25.67
2018-10-06T04:30:05.468Z,18.27
2018-10-06T04:32:33.568Z,31.50
2018-10-06T04:35:01.651Z,32.67
2018-10-06T04:37:29.742Z,23.77
2018-10-06T04:39:57.842Z,25.63
2018-10-06T04:42:25.995Z,27.83
2018-10-06T04:44:54.075Z,25.27
2018-10-06T04:47:22.176Z,24.87
2018-10-06T04:49:50.260Z,25.03
2018-10-06T04:52:18.350Z,23.90
2018-10-06T04:54:46.598Z,28.17
2018-10-06T04:57:14.688Z,25.23
2018-10-06T04:59:42.779Z,24.83
2018-10-06T05:02:10.890Z,27.63
2018-10-06T05:04:38.985Z,25.67
2018-10-06T05:07:07.115Z,29.53
2018-10-06T05:09:35.208Z,34.30
2018-10-06T05:12:03.315Z,31.17
2018-10-06T05:14:31.386Z,30.90
2018-10-06T05:16:59.459Z,25.77
2018-10-06T05:19:27.539Z,27.73
2018-10-06T05:21:55.629Z,29.20
2018-10-06T05:24:23.724Z,25.70
2018-10-06T05:26:51.845Z,27.80
2018-10-06T05:31:48.163Z,34.47
2018-10-06T05:34:16.288Z,32.57
2018-10-06T05:36:44.314Z,31.80
2018-10-06T05:39:12.631Z,25.67
2018-10-06T05:41:40.794Z,28.60
2018-10-06T05:44:09.078Z,29.93
2018-10-06T05:46:37.337Z,31.20
2018-10-06T05:49:05.425Z,25.50
2018-10-06T05:51:33.500Z,30.87
2018-10-06T05:54:01.589Z,27.00
2018-10-06T05:56:29.661Z,26.63
2018-10-06T05:58:57.822Z,26.80
2018-10-06T06:01:25.871Z,25.03
2018-10-06T06:03:53.951Z,26.43
2018-10-06T06:06:22.027Z,23.70
2018-10-06T06:08:50.109Z,24.30
2018-10-06T06:11:18.185Z,24.83
2018-10-06T06:13:46.270Z,25.03
2018-10-06T06:16:14.342Z,23.67
2018-10-06T06:18:42.440Z,20.73
2018-10-06T06:21:10.508Z,16.13
2018-10-06T06:23:38.575Z,24.10
2018-10-06T06:26:06.650Z,20.00
2018-10-06T06:28:34.988Z,24.23
2018-10-06T06:31:03.038Z,21.83
2018-10-06T06:33:31.618Z,20.33
2018-10-06T06:35:59.659Z,24.73
2018-10-06T06:38:27.852Z,24.03
2018-10-06T06:40:55.885Z,21.10
2018-10-06T06:43:23.960Z,23.23
2018-10-06T06:45:52.058Z,23.20
2018-10-06T06:48:20.122Z,25.07
2018-10-06T06:50:48.203Z,21.90
2018-10-06T06:53:16.426Z,21.37
2018-10-06T06:55:44.448Z,21.77
2018-10-06T06:58:12.581Z,22.50
2018-10-06T07:00:40.655Z,23.90
2018-10-06T07:03:08.756Z,21.97
2018-10-06T07:05:36.826Z,21.40
2018-10-06T07:08:04.947Z,19.17
2018-10-06T07:10:33.090Z,20.03
2018-10-06T07:13:01.156Z,21.57
2018-10-06T07:15:29.353Z,21.87
2018-10-06T07:17:57.428Z,23.23
2018-10-06T07:20:25.553Z,21.90
2018-10-06T07:22:53.667Z,25.50
2018-10-06T07:25:21.765Z,22.57
2018-10-06T07:27:49.847Z,17.80
2018-10-06T07:30:17.924Z,18.27
2018-10-06T07:32:46.033Z,22.80
2018-10-06T07:35:14.119Z,16.73
2018-10-06T07:37:42.215Z,21.40
2018-10-06T07:40:10.291Z,21.37
2018-10-06T07:42:38.490Z,22.27
2018-10-06T07:45:06.575Z,17.43
2018-10-06T07:47:34.649Z,21.30
2018-10-06T07:50:02.754Z,21.23
2018-10-06T07:52:30.841Z,22.00
2018-10-06T07:54:58.914Z,20.80
2018-10-06T07:57:26.996Z,18.13
2018-10-06T07:59:55.075Z,21.83
2018-10-06T08:02:23.153Z,21.73
2018-10-06T08:04:51.223Z,21.17
2018-10-06T08:07:19.419Z,18.97
2018-10-06T08:09:47.489Z,18.03
2018-10-06T08:12:15.603Z,24.10
2018-10-06T08:14:44.710Z,18.83
2018-10-06T08:17:12.787Z,18.17
2018-10-06T08:19:40.854Z,17.40
2018-10-06T08:22:09.031Z,22.90
2018-10-06T08:24:37.100Z,26.50
2018-10-06T08:27:05.195Z,19.20
2018-10-06T08:29:33.414Z,17.07
2018-10-06T08:32:01.690Z,19.43
2018-10-06T08:34:29.765Z,17.73
2018-10-06T08:36:57.869Z,20.20
2018-10-06T08:39:25.992Z,19.87
2018-10-06T08:41:54.071Z,29.67
2018-10-06T08:44:22.179Z,19.13
2018-10-06T08:46:50.265Z,19.70
2018-10-06T08:49:18.343Z,22.80
2018-10-06T08:51:46.424Z,23.27
2018-10-06T08:54:14.490Z,21.10
2018-10-06T08:56:42.595Z,23.33
2018-10-06T08:59:10.685Z,20.93
2018-10-06T09:01:38.752Z,19.53
2018-10-06T09:04:06.958Z,20.43
2018-10-06T09:06:35.031Z,23.93
2018-10-06T09:09:03.427Z,27.00
2018-10-06T09:11:31.499Z,24.00
2018-10-06T09:13:59.596Z,22.73
2018-10-06T09:16:27.673Z,23.10
2018-10-06T09:18:55.746Z,17.93
2018-10-06T09:21:23.963Z,21.80
2018-10-06T09:23:52.054Z,21.87
2018-10-06T09:26:20.117Z,19.10
2018-10-06T09:28:48.391Z,19.50
2018-10-06T09:31:16.462Z,19.70
2018-10-06T09:33:44.537Z,18.03
2018-10-06T09:36:12.611Z,23.07
2018-10-06T09:38:40.685Z,17.27
2018-10-06T09:41:08.792Z,16.77
2018-10-06T09:43:36.877Z,22.20
2018-10-06T09:46:04.946Z,18.63
2018-10-06T09:48:33.031Z,18.63
2018-10-06T09:51:01.100Z,17.27
2018-10-06T09:53:29.160Z,18.87
2018-10-06T09:55:57.241Z,17.30
2018-10-06T09:58:25.379Z,14.83
2018-10-06T10:00:58.733Z,16.00
2018-10-06T10:03:32.342Z,13.90
2018-10-06T10:06:00.420Z,17.13
2018-10-06T10:08:28.485Z,18.43
2018-10-06T10:10:56.574Z,14.40
2018-10-06T10:13:24.658Z,19.63
2018-10-06T10:15:52.824Z,17.73
2018-10-06T10:18:21.033Z,17.70
2018-10-06T10:20:48.986Z,18.13
2018-10-06T10:23:17.092Z,12.93
2018-10-06T10:25:45.177Z,15.90
2018-10-06T10:28:13.291Z,13.10
2018-10-06T10:30:41.359Z,14.77
2018-10-06T10:33:09.435Z,16.27
2018-10-06T10:35:37.761Z,15.47
2018-10-06T10:38:06.078Z,15.07
2018-10-06T10:40:34.186Z,12.07
2018-10-06T10:43:02.266Z,13.23
2018-10-06T10:45:30.357Z,12.53
2018-10-06T10:47:58.432Z,16.13
2018-10-06T10:50:26.569Z,12.20
2018-10-06T10:52:54.706Z,11.83
2018-10-06T10:55:22.876Z,13.87
2018-10-06T10:57:51.012Z,19.73
2018-10-06T11:00:19.181Z,11.43
2018-10-06T11:02:47.218Z,12.97
2018-10-06T11:05:15.300Z,16.53
2018-10-06T11:07:43.394Z,11.70
2018-10-06T11:10:11.565Z,14.33
2018-10-06T11:12:39.750Z,10.97
2018-10-06T11:15:07.814Z,12.03
2018-10-06T11:17:35.999Z,8.37
2018-10-06T11:20:04.291Z,11.07
2018-10-06T11:22:31.543Z,13.57
2018-10-06T11:24:59.846Z,11.10
2018-10-06T11:27:27.849Z,13.33
2018-10-06T11:29:55.935Z,25.67
2018-10-06T11:32:24.030Z,15.07
2018-10-06T11:34:52.443Z,14.57
2018-10-06T11:37:20.812Z,13.77
2018-10-06T11:39:48.856Z,10.73
2018-10-06T11:42:16.933Z,11.13
2018-10-06T11:44:45.001Z,10.63
2018-10-06T11:47:14.525Z,10.60
2018-10-06T11:49:42.646Z,10.80
2018-10-06T11:52:10.697Z,14.17
2018-10-06T11:54:38.791Z,13.23
2018-10-06T11:57:06.871Z,10.20
2018-10-06T11:59:34.937Z,11.13
2018-10-06T12:02:03.081Z,14.47
2018-10-06T12:04:31.261Z,10.63
2018-10-06T12:06:59.365Z,10.17
2018-10-06T12:09:27.441Z,17.60
2018-10-06T12:11:55.538Z,15.73
2018-10-06T12:14:23.627Z,38.57
2018-10-06T12:16:51.711Z,24.37
2018-10-06T12:19:19.812Z,26.07
2018-10-06T12:21:47.896Z,28.83
2018-10-06T12:24:16.036Z,31.73
2018-10-06T12:26:44.119Z,29.50
2018-10-06T12:29:12.197Z,20.90
2018-10-06T12:31:40.268Z,11.43
2018-10-06T12:34:08.392Z,10.10
2018-10-06T12:36:36.496Z,14.33
2018-10-06T12:39:05.732Z,12.93
2018-10-06T12:41:33.807Z,10.43
2018-10-06T12:44:01.934Z,9.67
2018-10-06T12:46:30.011Z,6.63
2018-10-06T12:48:58.166Z,8.77
2018-10-06T12:51:26.351Z,7.50
2018-10-06T12:53:54.351Z,5.23
2018-10-06T12:56:22.489Z,6.33
2018-10-06T12:58:50.781Z,7.67
2018-10-06T13:01:18.927Z,7.73
2018-10-06T13:03:47.007Z,3.70
2018-10-06T13:06:15.143Z,5.57
2018-10-06T13:08:43.146Z,5.47
2018-10-06T13:11:11.204Z,4.77
2018-10-06T13:13:39.383Z,3.27
2018-10-06T13:16:07.446Z,6.43
2018-10-06T13:18:35.508Z,6.03
2018-10-06T13:21:03.577Z,4.67
2018-10-06T13:23:31.651Z,3.03
2018-10-06T13:25:59.719Z,5.20
2018-10-06T13:28:27.787Z,7.73
2018-10-06T13:30:55.861Z,4.63
2018-10-06T13:33:23.920Z,6.23
2018-10-06T13:35:51.984Z,7.57
2018-10-06T13:38:20.040Z,8.43
2018-10-06T13:40:48.112Z,4.87
2018-10-06T13:43:16.184Z,9.13
2018-10-06T13:45:44.255Z,3.90
2018-10-06T13:48:12.321Z,7.37
2018-10-06T13:50:40.406Z,7.63
2018-10-06T13:53:08.468Z,6.37
2018-10-06T13:55:36.585Z,7.47
2018-10-06T13:58:04.750Z,10.83
2018-10-06T14:00:32.760Z,5.10
2018-10-06T14:03:00.898Z,10.57
2018-10-06T14:05:28.942Z,7.63
2018-10-06T14:07:58.194Z,7.37
2018-10-06T14:10:26.289Z,3.83
2018-10-06T14:12:54.472Z,4.90
2018-10-06T14:15:22.640Z,4.57
2018-10-06T14:17:50.834Z,3.17
2018-10-06T14:20:19.008Z,7.57
2018-10-06T14:22:47.179Z,6.23
2018-10-06T14:25:15.338Z,4.77
2018-10-06T14:27:43.416Z,5.13
2018-10-06T14:30:11.585Z,3.57
2018-10-06T14:32:40.071Z,6.17
2018-10-06T14:35:08.103Z,3.47
2018-10-06T14:37:36.186Z,7.60
2018-10-06T14:40:04.276Z,6.03
2018-10-06T14:42:32.380Z,7.60
2018-10-06T14:45:00.461Z,17.60
2018-10-06T14:47:28.621Z,12.93
2018-10-06T14:49:56.670Z,12.50
2018-10-06T14:52:24.754Z,8.27
2018-10-06T14:54:52.829Z,11.30
2018-10-06T14:57:20.955Z,19.67
2018-10-06T14:59:49.049Z,13.07
2018-10-06T15:02:17.142Z,18.23
2018-10-06T15:04:45.224Z,11.17
2018-10-06T15:07:13.298Z,8.60
2018-10-06T15:09:41.385Z,10.47
2018-10-06T15:12:09.494Z,7.87
2018-10-06T15:14:37.683Z,24.07
2018-10-06T15:17:05.935Z,10.07
2018-10-06T15:19:34.006Z,7.67
2018-10-06T15:22:02.068Z,7.10
2018-10-06T15:24:30.182Z,13.07
2018-10-06T15:26:58.259Z,16.60
2018-10-06T15:29:26.485Z,11.87
2018-10-06T15:31:54.567Z,14.20
2018-10-06T15:34:22.640Z,11.37
2018-10-06T15:36:50.782Z,11.67
2018-10-06T15:39:18.788Z,12.90
2018-10-06T15:41:46.889Z,10.50
2018-10-06T15:44:14.937Z,9.27
2018-10-06T15:46:43.002Z,11.27
2018-10-06T15:49:11.091Z,24.83
2018-10-06T15:51:39.200Z,61.10
2018-10-06T15:54:07.290Z,29.63
2018-10-06T15:56:35.418Z,17.63
2018-10-06T15:59:03.479Z,23.77
2018-10-06T16:01:31.564Z,18.23
2018-10-06T16:03:59.665Z,13.13
2018-10-06T16:06:28.153Z,11.77
2018-10-06T16:08:56.352Z,13.47
2018-10-06T16:11:24.496Z,8.37
2018-10-06T16:13:52.573Z,12.13
2018-10-06T16:16:20.652Z,7.23
2018-10-06T16:18:48.726Z,7.73
2018-10-06T16:21:16.865Z,9.97
2018-10-06T16:23:44.945Z,8.57
2018-10-06T16:26:13.081Z,9.00
2018-10-06T16:28:41.147Z,13.27
2018-10-06T16:31:09.247Z,7.77
2018-10-06T16:33:37.388Z,12.70
2018-10-06T16:36:05.417Z,11.50
2018-10-06T16:38:33.493Z,5.73
2018-10-06T16:41:01.577Z,8.93
2018-10-06T16:43:29.651Z,9.30
2018-10-06T16:45:57.764Z,13.50
2018-10-06T16:48:25.846Z,11.07
2018-10-06T16:50:53.926Z,14.37
2018-10-06T16:53:22.015Z,9.03
2018-10-06T16:55:50.125Z,10.77
2018-10-06T16:58:18.219Z,13.27
2018-10-06T17:00:46.293Z,15.43
2018-10-06T17:03:14.384Z,16.10
2018-10-06T17:05:42.460Z,15.17
2018-10-06T17:08:10.618Z,15.20
2018-10-06T17:10:38.696Z,7.63
2018-10-06T17:13:06.820Z,9.50
2018-10-06T17:15:34.916Z,10.93
2018-10-06T17:18:03.074Z,16.00
2018-10-06T17:20:31.244Z,10.67
2018-10-06T17:22:59.331Z,12.00
2018-10-06T17:25:27.421Z,6.17
2018-10-06T17:27:55.502Z,5.43
2018-10-06T17:30:23.664Z,6.93
2018-10-06T17:32:51.749Z,6.30
2018-10-06T17:35:19.829Z,11.23
2018-10-06T17:37:47.892Z,8.87
2018-10-06T17:40:15.968Z,8.63
2018-10-06T17:42:44.033Z,10.70
2018-10-06T17:45:12.105Z,10.03
2018-10-06T17:47:40.168Z,7.43
2018-10-06T17:50:08.306Z,7.27
2018-10-06T17:52:36.317Z,9.67
2018-10-06T17:55:04.417Z,8.70
2018-10-06T17:57:32.610Z,10.23
2018-10-06T18:00:00.581Z,10.67
2018-10-06T18:02:28.643Z,12.90
2018-10-06T18:04:56.784Z,10.77
2018-10-06T18:07:24.811Z,12.13
2018-10-06T18:09:52.916Z,9.23
2018-10-06T18:12:21.082Z,11.70
2018-10-06T18:14:49.185Z,10.33
2018-10-06T18:17:17.401Z,8.17
2018-10-06T18:19:46.372Z,8.63
2018-10-06T18:22:14.393Z,8.57
2018-10-06T18:24:42.472Z,7.70
2018-10-06T18:27:10.608Z,8.73
2018-10-06T18:29:38.669Z,9.87
2018-10-06T18:32:06.998Z,9.20
2018-10-06T18:34:35.041Z,8.83
2018-10-06T18:37:03.168Z,7.73
2018-10-06T18:39:31.207Z,9.40
2018-10-06T18:41:59.473Z,12.90
2018-10-06T18:44:27.669Z,7.70
2018-10-06T18:46:55.751Z,9.63
2018-10-06T18:49:24.089Z,7.13
2018-10-06T18:51:52.138Z,10.20
2018-10-06T18:54:20.208Z,6.97
2018-10-06T18:56:48.261Z,10.97
2018-10-06T18:59:16.539Z,9.23
2018-10-06T19:01:44.698Z,6.70
2018-10-06T19:04:12.992Z,15.40
2018-10-06T19:06:40.988Z,8.30
2018-10-06T19:09:09.059Z,11.37
2018-10-06T19:11:37.545Z,12.40
2018-10-06T19:14:05.611Z,10.43
2018-10-06T19:16:33.707Z,21.97
2018-10-06T19:19:01.771Z,11.93
2018-10-06T19:21:29.857Z,13.70
2018-10-06T19:23:57.957Z,12.10
2018-10-06T19:26:26.150Z,18.40
2018-10-06T19:28:54.287Z,20.70
2018-10-06T19:31:22.374Z,18.53
2018-10-06T19:33:50.438Z,18.43
2018-10-06T19:36:18.789Z,11.50
2018-10-06T19:38:46.853Z,15.33
2018-10-06T19:41:14.908Z,11.83
2018-10-06T19:43:42.990Z,11.37
2018-10-06T19:46:11.357Z,10.53
2018-10-06T19:48:39.401Z,10.80
2018-10-06T19:51:07.466Z,10.00
2018-10-06T19:53:35.600Z,11.57
2018-10-06T19:56:03.665Z,12.60
2018-10-06T19:58:31.762Z,15.27
2018-10-06T20:00:59.803Z,16.00
2018-10-06T20:03:27.869Z,19.17
2018-10-06T20:05:55.949Z,19.53
2018-10-06T20:08:24.027Z,19.50
2018-10-06T20:10:52.089Z,17.27
2018-10-06T20:13:20.174Z,21.40
2018-10-06T20:15:48.238Z,15.60
2018-10-06T20:18:16.318Z,14.83
2018-10-06T20:20:44.387Z,16.97
2018-10-06T20:23:12.466Z,12.37
2018-10-06T20:25:40.534Z,11.33
2018-10-06T20:28:08.614Z,11.13
2018-10-06T20:30:36.683Z,14.87
2018-10-06T20:33:04.760Z,12.00
2018-10-06T20:35:32.814Z,13.47
2018-10-06T20:38:00.896Z,12.43
2018-10-06T20:40:28.960Z,9.20
2018-10-06T20:42:57.022Z,11.73
2018-10-06T20:45:25.086Z,9.70
2018-10-06T20:47:53.161Z,11.33
2018-10-06T20:50:21.225Z,11.57
2018-10-06T20:52:49.293Z,11.70
2018-10-06T20:55:17.373Z,11.90
2018-10-06T20:57:45.435Z,9.63
2018-10-06T21:00:13.508Z,14.43
2018-10-06T21:02:41.581Z,11.87
2018-10-06T21:05:09.659Z,10.17
2018-10-06T21:07:37.976Z,11.80
2018-10-06T21:10:06.047Z,16.43
2018-10-06T21:12:34.118Z,10.60
2018-10-06T21:15:02.190Z,19.20
2018-10-06T21:17:30.249Z,10.53
2018-10-06T21:19:58.320Z,13.47
2018-10-06T21:22:26.388Z,13.30
2018-10-06T21:24:54.465Z,10.63
2018-10-06T21:27:22.554Z,11.50
2018-10-06T21:29:50.650Z,15.70
2018-10-06T21:32:18.731Z,16.93
2018-10-06T21:34:46.817Z,13.30
2018-10-06T21:37:14.883Z,13.33
2018-10-06T21:39:42.956Z,13.03
2018-10-06T21:42:11.020Z,11.90
2018-10-06T21:44:39.093Z,10.27
2018-10-06T21:47:07.149Z,12.80
2018-10-06T21:49:35.230Z,12.33
2018-10-06T21:52:03.293Z,10.67
2018-10-06T21:54:31.454Z,13.63
2018-10-06T21:56:59.482Z,13.27
2018-10-06T21:59:27.548Z,14.40
2018-10-06T22:01:55.627Z,15.93
2018-10-06T22:04:23.693Z,10.97
2018-10-06T22:06:51.786Z,12.83
2018-10-06T22:09:19.870Z,9.93
2018-10-06T22:11:47.954Z,12.53
2018-10-06T22:14:16.036Z,13.00
2018-10-06T22:16:44.138Z,11.17
2018-10-06T22:19:12.210Z,12.13
2018-10-06T22:21:40.306Z,13.90
2018-10-06T22:24:08.401Z,11.40
2018-10-06T22:26:36.486Z,11.77
2018-10-06T22:29:04.584Z,11.60
2018-10-06T22:31:32.842Z,11.50
2018-10-06T22:34:00.937Z,13.80
2018-10-06T22:36:29.023Z,10.93
2018-10-06T22:38:57.102Z,12.70
2018-10-06T22:41:25.208Z,10.80
2018-10-06T22:43:53.282Z,13.83
2018-10-06T22:46:21.369Z,11.23
2018-10-06T22:48:49.441Z,13.53
2018-10-06T22:51:17.594Z,12.53
2018-10-06T22:53:45.641Z,13.73
2018-10-06T22:56:13.689Z,10.93
2018-10-06T22:58:41.766Z,15.00
2018-10-06T23:01:09.872Z,13.37
2018-10-06T23:03:38.035Z,10.40
2018-10-06T23:06:07.494Z,12.73
2018-10-06T23:08:35.583Z,11.23
2018-10-06T23:11:03.697Z,11.50
2018-10-06T23:13:31.805Z,10.97
2018-10-06T23:15:59.883Z,10.23
2018-10-06T23:18:28.268Z,11.20
2018-10-06T23:20:56.341Z,16.27
2018-10-06T23:23:24.424Z,10.23
2018-10-06T23:25:52.711Z,10.23
2018-10-06T23:28:20.766Z,13.40
2018-10-06T23:30:48.844Z,15.00
2018-10-06T23:33:16.927Z,11.27
2018-10-06T23:35:45.011Z,14.53
2018-10-06T23:38:13.097Z,13.40
2018-10-06T23:40:41.172Z,11.30
2018-10-06T23:43:09.269Z,13.03
2018-10-06T23:45:37.347Z,12.63
2018-10-06T23:48:05.575Z,11.17
2018-10-06T23:50:33.640Z,11.37
2018-10-06T23:53:01.729Z,9.50
2018-10-06T23:55:29.808Z,12.73
2018-10-06T23:57:57.905Z,10.53
